Timber Mountain, Nevada Weather observations

Data are for 10 minute period ending at time listed.
 Day   Time   Solar   Ave.   Ave.  Ave.  Vector  Max.   Baro.   Total    
  of    of     Rad.   Air    Rel.  Wind   Wind   Wind  Press.  Precip.   
Year   Day            Temp.  Hum.  Speed  Dir.   Gust                    
2016   (PST)  Kw/m2    F      %     mph   deg.    mph    mb.     in.     
-------------------------------------------------------------------------
 175   16:00   0.72   91.0     7   11.1   229    23.5   813.0    0.00 
 175   17:00   0.52   90.8     7    9.9   236    22.1   812.7    0.00 
 175   18:00   0.31   89.4     7    9.5   227    20.0   812.6    0.00 
 175   19:00   0.10   85.6     8    9.3   218    17.8   812.6    0.00 
 175   20:00   0.00   80.8    10    6.9   191    16.4   812.7    0.00 
 175   21:00   0.00   79.2    11    5.5   176    14.6   813.1    0.00 
 175   22:00   0.00   76.2    12    5.8   258    14.6   813.4    0.00 
 175   23:00   0.00   72.8    12    4.3    15    12.3   813.5    0.00 
 176    0:00   0.00   73.7    10    9.1    20    19.1   813.3    0.00 
 176    1:00   0.00   72.8    10    8.2    23    19.6   813.0    0.00 
 176    2:00   0.00   71.8    10    8.1    29    19.8   812.8    0.00 
 176    3:00   0.00   71.0    11    7.1    33    17.7   812.6    0.00 
 176    4:00   0.00   70.3    11    7.8    29    24.8   812.5    0.00 
 176    5:00   0.01   69.3    12    7.8    27    20.0   812.7    0.00 
 176    6:00   0.13   71.4    11    5.6    32    17.2   812.9    0.00 
 176    7:00   0.36   75.8    10    8.8    18    20.8   813.3    0.00 
 176    8:00   0.57   79.1     9    8.1    23    19.3   813.8    0.00 
 176    9:00   0.77   81.3     8    9.0     8    19.4   813.9    0.00 
 176   10:00   0.93   83.8     8    8.7   359    17.1   813.8    0.00 
 176   11:00   1.03   86.2     8    6.5   341    18.0   813.7    0.00 
 176   12:00   1.08   88.0     7    6.9   301    18.0   813.3    0.00 
 176   13:00   1.08   89.1     7    8.1   290    21.5   812.9    0.00 
 176   14:00   1.01   89.8     6    9.8   268    21.5   812.6    0.00 
 176   15:00   0.90   90.1     6    7.7   240    23.4   812.2    0.00 

Return to Timber Mountain graphs page.


Western Regional Climate Center,wrcc@dri.edu